Peniel Crossroads, South Carolina
Current Conditions -  °F | °C
As of 7:53 AM on Sunday 23 Nov 2014 (Local Time) from KFLO Reporting Station
Light Rain Light Rain  
Wind Chill: 47°   Ceiling: 7000
Heat Index: 49°   Visibility: 2.5mi
Dew Point: 47°   Wind: 5mph
Humidity: 93%   Direction: 60°ENE
Pressure: 30.22"   Gusts: NA
Location:  34.07°N, 79.933°W
Report Text: KFLO 231253Z 06004KT 2 1/2SM -RA BR OVC070 09/08 A3022 RMK AO2 SLP234 P0004 T00940083
Loading
Personal Weather Stations






























Interactive Weather Map New forecast layout! Learn more

10-Day Weather Forecast

Advertisements
Track Severe Weather on mobile